Portada
METAR-TAF:

METAR-TAF

Aeroports :

Aeroport Internacional de Singapur-Changi

Singapur, Singapur

latitud: 01-22N, longitud: 103-59E, altitud: 5 m

Observació

L'informe es va fer fa 20 minuts, a les 07:30 UTC
Vent 9 kt del Nord-Est
Temperatura 31°C
Humitat 66%
Pressió 1008 hPa
Visibilitat 10 km o més
Núvols disperses a una alçada de 2000 ft
Cel ennuvolat a una alçada de 28000 ft

METAR: WSSS 190730Z 05009KT 9999 SCT020 BKN280 31/24 Q1008 NOSIG

Hora: 15:50 (07:50 UTC)

Pronòstic

L'informe es va fer fa 1 hora i 50 minuts, a les 06:00 UTC
Pronòstic vàlid del 19 a les 06 UTC al 20 a les 12 UTC
Vent 7 kt del Nord-Est
Visibilitat 10 km o més
Escasses núvols a una alçada de 1500 ft
Núvols disperses a una alçada de 2000 ft
Temporalment
l' 20 a les 04 UTC al 20 a les 10 UTC
Visibilitat: 3000 m
Escasses núvols a una alçada de 1200 ft, Cumulonimbus.
Cel ennuvolat a una alçada de 1500 ft
tempesta, pluja

TAF: WSSS 190600Z 1906/2012 04007KT 9999 FEW015 SCT020 TEMPO 2004/2010 3000 TSRA FEW012CB BKN015

Observacions i pronòstics meteorològics de més de 4000 aeroports (METAR i TAF).

Les estacions disponibles són els punts grocs i vermells al mapa.

Posi el ratolí al punt desitjat per veure el nom de l'estació.

Feu clic per veure les observacions i els pronòstics meteorològics.

Per canviar el mapa: feu clic els botons verds amb una creu de color negre per apropar; al botó verd amb un guió per allunyar la imatge; o en les fletxes verdes per a mapes adjacents.


METAR-TAF: